sensor_id;sensor_type;location;lat;lon;timestamp;pressure;altitude;pressure_sealevel;temperature;humidity
28648;BME280;17137;51.494;-0.262;2023-07-24T00:00:19;50104.91;;;-145.72;91.46
28648;BME280;17137;51.494;-0.262;2023-07-24T00:00:50;50095.54;;;-145.72;91.46
28648;BME280;17137;51.494;-0.262;2023-07-24T00:01:20;50102.81;;;-145.72;91.55
28648;BME280;17137;51.494;-0.262;2023-07-24T00:01:50;50097.88;;;-145.72;91.38
28648;BME280;17137;51.494;-0.262;2023-07-24T00:02:20;50103.06;;;-145.72;91.54
28648;BME280;17137;51.494;-0.262;2023-07-24T00:02:51;50099.73;;;-145.72;91.38
28648;BME280;17137;51.494;-0.262;2023-07-24T00:03:21;50091.72;;;-145.72;91.10
28648;BME280;17137;51.494;-0.262;2023-07-24T00:03:51;50097.88;;;-145.72;91.11
28648;BME280;17137;51.494;-0.262;2023-07-24T00:04:22;50104.42;;;-145.72;91.13
28648;BME280;17137;51.494;-0.262;2023-07-24T00:04:52;50103.43;;;-145.72;91.41
28648;BME280;17137;51.494;-0.262;2023-07-24T00:05:23;50100.72;;;-145.72;91.73
28648;BME280;17137;51.494;-0.262;2023-07-24T00:05:57;50110.58;;;-145.72;91.74
28648;BME280;17137;51.494;-0.262;2023-07-24T00:06:28;50103.31;;;-145.72;91.54
28648;BME280;17137;51.494;-0.262;2023-07-24T00:06:58;50099.98;;;-145.72;91.57
28648;BME280;17137;51.494;-0.262;2023-07-24T00:07:28;50099.61;;;-145.72;91.51
28648;BME280;17137;51.494;-0.262;2023-07-24T00:07:59;50096.28;;;-145.72;91.45
28648;BME280;17137;51.494;-0.262;2023-07-24T00:08:29;50105.77;;;-145.72;91.55
28648;BME280;17137;51.494;-0.262;2023-07-24T00:08:59;50098.87;;;-145.72;91.62
28648;BME280;17137;51.494;-0.262;2023-07-24T00:09:30;50105.16;;;-145.72;91.55
28648;BME280;17137;51.494;-0.262;2023-07-24T00:10:00;50097.51;;;-145.72;91.40
28648;BME280;17137;51.494;-0.262;2023-07-24T00:10:30;50118.84;;;-145.72;92.04
28648;BME280;17137;51.494;-0.262;2023-07-24T00:11:00;50114.40;;;-145.72;92.01
28648;BME280;17137;51.494;-0.262;2023-07-24T00:11:31;50094.80;;;-145.72;91.84
28648;BME280;17137;51.494;-0.262;2023-07-24T00:12:02;50104.91;;;-145.72;91.45
28648;BME280;17137;51.494;-0.262;2023-07-24T00:12:32;50098.87;;;-145.72;91.38
28648;BME280;17137;51.494;-0.262;2023-07-24T00:13:02;50097.14;;;-145.72;91.69
28648;BME280;17137;51.494;-0.262;2023-07-24T00:13:32;50108.12;;;-145.72;91.57
28648;BME280;17137;51.494;-0.262;2023-07-24T00:14:03;50098.13;;;-145.72;91.31
28648;BME280;17137;51.494;-0.262;2023-07-24T00:14:33;50098.13;;;-145.72;91.42
28648;BME280;17137;51.494;-0.262;2023-07-24T00:15:05;50099.24;;;-145.72;91.41
28648;BME280;17137;51.494;-0.262;2023-07-24T00:15:35;50097.39;;;-145.72;91.16
28648;BME280;17137;51.494;-0.262;2023-07-24T00:16:07;50104.66;;;-145.72;90.96
28648;BME280;17137;51.494;-0.262;2023-07-24T00:16:37;50108.24;;;-145.72;91.27
28648;BME280;17137;51.494;-0.262;2023-07-24T00:17:07;50106.39;;;-145.72;91.42
28648;BME280;17137;51.494;-0.262;2023-07-24T00:17:38;50102.69;;;-145.72;91.20
28648;BME280;17137;51.494;-0.262;2023-07-24T00:18:08;50107.25;;;-145.72;91.17
28648;BME280;17137;51.494;-0.262;2023-07-24T00:18:38;50100.84;;;-145.72;91.21
28648;BME280;17137;51.494;-0.262;2023-07-24T00:19:09;50090.49;;;-145.72;90.99
28648;BME280;17137;51.494;-0.262;2023-07-24T00:19:39;50103.80;;;-145.72;90.98
28648;BME280;17137;51.494;-0.262;2023-07-24T00:20:10;50096.16;;;-145.72;90.85
28648;BME280;17137;51.494;-0.262;2023-07-24T00:20:40;50093.32;;;-145.72;90.66
28648;BME280;17137;51.494;-0.262;2023-07-24T00:21:10;50090.98;;;-145.72;90.45
28648;BME280;17137;51.494;-0.262;2023-07-24T00:21:41;50095.79;;;-145.72;90.78
28648;BME280;17137;51.494;-0.262;2023-07-24T00:22:11;50104.42;;;-145.72;91.10
28648;BME280;17137;51.494;-0.262;2023-07-24T00:22:42;50098.99;;;-145.72;91.07
28648;BME280;17137;51.494;-0.262;2023-07-24T00:23:12;50099.24;;;-145.72;91.22
28648;BME280;17137;51.494;-0.262;2023-07-24T00:23:42;50098.13;;;-145.72;91.22
28648;BME280;17137;51.494;-0.262;2023-07-24T00:24:12;50106.39;;;-145.72;91.49
28648;BME280;17137;51.494;-0.262;2023-07-24T00:24:43;50099.73;;;-145.72;91.38
28648;BME280;17137;51.494;-0.262;2023-07-24T00:25:13;50111.94;;;-145.72;92.67
28648;BME280;17137;51.494;-0.262;2023-07-24T00:25:43;50105.53;;;-145.72;92.37
28648;BME280;17137;51.494;-0.262;2023-07-24T00:26:13;50118.96;;;-145.72;92.41
28648;BME280;17137;51.494;-0.262;2023-07-24T00:26:44;50105.40;;;-145.72;92.28
28648;BME280;17137;51.494;-0.262;2023-07-24T00:27:14;50105.03;;;-145.72;92.11
28648;BME280;17137;51.494;-0.262;2023-07-24T00:27:44;50111.94;;;-145.72;92.29
28648;BME280;17137;51.494;-0.262;2023-07-24T00:28:15;50107.99;;;-145.72;92.25
28648;BME280;17137;51.494;-0.262;2023-07-24T00:28:45;50114.89;;;-145.72;92.29
28648;BME280;17137;51.494;-0.262;2023-07-24T00:29:15;50098.38;;;-145.72;91.98
28648;BME280;17137;51.494;-0.262;2023-07-24T00:29:45;50113.91;;;-145.72;92.53
28648;BME280;17137;51.494;-0.262;2023-07-24T00:30:16;50100.47;;;-145.72;92.58
28648;BME280;17137;51.494;-0.262;2023-07-24T00:30:46;50110.09;;;-145.72;92.47
28648;BME280;17137;51.494;-0.262;2023-07-24T00:31:16;50106.76;;;-145.72;92.42
28648;BME280;17137;51.494;-0.262;2023-07-24T00:32:16;50103.92;;;-145.72;92.53
28648;BME280;17137;51.494;-0.262;2023-07-24T00:32:46;50105.40;;;-145.72;92.55
28648;BME280;17137;51.494;-0.262;2023-07-24T00:33:16;50112.31;;;-145.72;92.56
28648;BME280;17137;51.494;-0.262;2023-07-24T00:33:47;50110.46;;;-145.72;92.46
28648;BME280;17137;51.494;-0.262;2023-07-24T00:34:17;50120.44;;;-145.72;92.47
28648;BME280;17137;51.494;-0.262;2023-07-24T00:34:47;50124.02;;;-145.72;92.69
28648;BME280;17137;51.494;-0.262;2023-07-24T00:35:18;50112.92;;;-145.72;92.60
28648;BME280;17137;51.494;-0.262;2023-07-24T00:35:48;50116.99;;;-145.72;92.35
28648;BME280;17137;51.494;-0.262;2023-07-24T00:36:18;50102.20;;;-145.72;92.02
28648;BME280;17137;51.494;-0.262;2023-07-24T00:36:48;50107.38;;;-145.72;91.73
28648;BME280;17137;51.494;-0.262;2023-07-24T00:37:19;50109.84;;;-145.72;91.81
28648;BME280;17137;51.494;-0.262;2023-07-24T00:37:49;50104.42;;;-145.72;91.95
28648;BME280;17137;51.494;-0.262;2023-07-24T00:38:19;50108.85;;;-145.72;91.91
28648;BME280;17137;51.494;-0.262;2023-07-24T00:38:49;50100.10;;;-145.72;91.82
28648;BME280;17137;51.494;-0.262;2023-07-24T00:39:20;50107.13;;;-145.72;91.87
28648;BME280;17137;51.494;-0.262;2023-07-24T00:39:50;50108.98;;;-145.72;92.09
28648;BME280;17137;51.494;-0.262;2023-07-24T00:40:20;50102.94;;;-145.72;92.21
28648;BME280;17137;51.494;-0.262;2023-07-24T00:40:50;50109.96;;;-145.72;92.18
28648;BME280;17137;51.494;-0.262;2023-07-24T00:41:21;50103.31;;;-145.72;92.04
28648;BME280;17137;51.494;-0.262;2023-07-24T00:41:51;50110.95;;;-145.72;92.16
28648;BME280;17137;51.494;-0.262;2023-07-24T00:42:21;50101.58;;;-145.72;92.26
28648;BME280;17137;51.494;-0.262;2023-07-24T00:42:51;50113.66;;;-145.72;92.12
28648;BME280;17137;51.494;-0.262;2023-07-24T00:43:22;50108.61;;;-145.72;92.43
28648;BME280;17137;51.494;-0.262;2023-07-24T00:43:52;50098.25;;;-145.72;92.12
28648;BME280;17137;51.494;-0.262;2023-07-24T00:44:22;50105.53;;;-145.72;92.18
28648;BME280;17137;51.494;-0.262;2023-07-24T00:44:53;50107.75;;;-145.72;92.41
28648;BME280;17137;51.494;-0.262;2023-07-24T00:45:23;50109.96;;;-145.72;92.66
28648;BME280;17137;51.494;-0.262;2023-07-24T00:45:54;50105.90;;;-145.72;92.96
28648;BME280;17137;51.494;-0.262;2023-07-24T00:46:25;50111.69;;;-145.72;92.75
28648;BME280;17137;51.494;-0.262;2023-07-24T00:46:56;50117.48;;;-145.72;92.90
28648;BME280;17137;51.494;-0.262;2023-07-24T00:47:27;50108.73;;;-145.72;93.14
28648;BME280;17137;51.494;-0.262;2023-07-24T00:47:58;50126.23;;;-145.72;93.39
28648;BME280;17137;51.494;-0.262;2023-07-24T00:48:29;50118.84;;;-145.72;93.84
28648;BME280;17137;51.494;-0.262;2023-07-24T00:49:01;50123.03;;;-145.72;94.04
28648;BME280;17137;51.494;-0.262;2023-07-24T00:49:31;50121.92;;;-145.72;93.76
28648;BME280;17137;51.494;-0.262;2023-07-24T00:50:02;50113.54;;;-145.72;93.67
28648;BME280;17137;51.494;-0.262;2023-07-24T00:50:32;50112.55;;;-145.72;93.68
28648;BME280;17137;51.494;-0.262;2023-07-24T00:51:03;50121.43;;;-145.72;93.62
28648;BME280;17137;51.494;-0.262;2023-07-24T00:51:34;50112.55;;;-145.72;93.44
28648;BME280;17137;51.494;-0.262;2023-07-24T00:52:05;50113.79;;;-145.72;93.31
28648;BME280;17137;51.494;-0.262;2023-07-24T00:52:35;50115.02;;;-145.72;93.28
28648;BME280;17137;51.494;-0.262;2023-07-24T00:53:06;50114.65;;;-145.72;93.18
28648;BME280;17137;51.494;-0.262;2023-07-24T00:53:37;50120.07;;;-145.72;93.09
28648;BME280;17137;51.494;-0.262;2023-07-24T00:54:07;50117.11;;;-145.72;93.08
28648;BME280;17137;51.494;-0.262;2023-07-24T00:54:38;50121.43;;;-145.72;93.01
28648;BME280;17137;51.494;-0.262;2023-07-24T00:55:09;50106.76;;;-145.72;93.22
28648;BME280;17137;51.494;-0.262;2023-07-24T00:55:41;50107.62;;;-145.72;93.01
28648;BME280;17137;51.494;-0.262;2023-07-24T00:56:12;50118.59;;;-145.72;92.81
28648;BME280;17137;51.494;-0.262;2023-07-24T00:56:43;50104.91;;;-145.72;92.68
28648;BME280;17137;51.494;-0.262;2023-07-24T00:57:14;50109.22;;;-145.72;92.60
28648;BME280;17137;51.494;-0.262;2023-07-24T00:57:45;50108.85;;;-145.72;92.46
28648;BME280;17137;51.494;-0.262;2023-07-24T00:58:16;50092.58;;;-145.72;91.90
28648;BME280;17137;51.494;-0.262;2023-07-24T00:58:48;50099.12;;;-145.72;91.73
28648;BME280;17137;51.494;-0.262;2023-07-24T00:59:18;50100.35;;;-145.72;91.77
28648;BME280;17137;51.494;-0.262;2023-07-24T00:59:49;50103.31;;;-145.72;91.75
28648;BME280;17137;51.494;-0.262;2023-07-24T01:00:19;50113.29;;;-145.72;91.95
28648;BME280;17137;51.494;-0.262;2023-07-24T01:00:50;50100.35;;;-145.72;92.11
28648;BME280;17137;51.494;-0.262;2023-07-24T01:01:20;50107.99;;;-145.72;92.11
28648;BME280;17137;51.494;-0.262;2023-07-24T01:01:51;50097.14;;;-145.72;92.07
28648;BME280;17137;51.494;-0.262;2023-07-24T01:02:21;50095.42;;;-145.72;91.82
28648;BME280;17137;51.494;-0.262;2023-07-24T01:02:52;50102.69;;;-145.72;92.15
28648;BME280;17137;51.494;-0.262;2023-07-24T01:03:30;50108.85;;;-145.72;92.43
28648;BME280;17137;51.494;-0.262;2023-07-24T01:04:01;50109.96;;;-145.72;92.15
28648;BME280;17137;51.494;-0.262;2023-07-24T01:04:33;50106.27;;;-145.72;92.62
28648;BME280;17137;51.494;-0.262;2023-07-24T01:05:04;50107.01;;;-145.72;92.71
28648;BME280;17137;51.494;-0.262;2023-07-24T01:05:34;50114.15;;;-145.72;92.83
28648;BME280;17137;51.494;-0.262;2023-07-24T01:06:05;50116.00;;;-145.72;92.90
28648;BME280;17137;51.494;-0.262;2023-07-24T01:06:35;50108.85;;;-145.72;92.87
28648;BME280;17137;51.494;-0.262;2023-07-24T01:07:06;50113.42;;;-145.72;92.78
28648;BME280;17137;51.494;-0.262;2023-07-24T01:07:36;50115.26;;;-145.72;92.63
28648;BME280;17137;51.494;-0.262;2023-07-24T01:08:07;50108.48;;;-145.72;92.84
28648;BME280;17137;51.494;-0.262;2023-07-24T01:08:37;50117.24;;;-145.72;92.92
28648;BME280;17137;51.494;-0.262;2023-07-24T01:09:07;50109.96;;;-145.72;93.26
28648;BME280;17137;51.494;-0.262;2023-07-24T01:09:37;50109.72;;;-145.72;93.08
28648;BME280;17137;51.494;-0.262;2023-07-24T01:10:08;50113.91;;;-145.72;93.40
28648;BME280;17137;51.494;-0.262;2023-07-24T01:10:39;50105.03;;;-145.72;93.26
28648;BME280;17137;51.494;-0.262;2023-07-24T01:11:15;50104.91;;;-145.72;93.11
28648;BME280;17137;51.494;-0.262;2023-07-24T01:11:47;50111.07;;;-145.72;92.86
28648;BME280;17137;51.494;-0.262;2023-07-24T01:12:25;50111.32;;;-145.72;92.96
28648;BME280;17137;51.494;-0.262;2023-07-24T01:12:59;50102.57;;;-145.72;92.85
28648;BME280;17137;51.494;-0.262;2023-07-24T01:13:35;50102.20;;;-145.72;92.50
28648;BME280;17137;51.494;-0.262;2023-07-24T01:14:11;50108.48;;;-145.72;92.33
28648;BME280;17137;51.494;-0.262;2023-07-24T01:14:46;50100.35;;;-145.72;92.45
28648;BME280;17137;51.494;-0.262;2023-07-24T01:15:21;50090.49;;;-145.72;92.17
28648;BME280;17137;51.494;-0.262;2023-07-24T01:15:59;50098.01;;;-145.72;91.80
28648;BME280;17137;51.494;-0.262;2023-07-24T01:16:36;50093.82;;;-145.72;91.60
28648;BME280;17137;51.494;-0.262;2023-07-24T01:17:07;50102.81;;;-145.72;91.73
28648;BME280;17137;51.494;-0.262;2023-07-24T01:17:45;50097.27;;;-145.72;91.91
28648;BME280;17137;51.494;-0.262;2023-07-24T01:18:17;50107.13;;;-145.72;92.01
28648;BME280;17137;51.494;-0.262;2023-07-24T01:18:50;50095.79;;;-145.72;91.90
28648;BME280;17137;51.494;-0.262;2023-07-24T01:19:29;50101.21;;;-145.72;92.05
28648;BME280;17137;51.494;-0.262;2023-07-24T01:20:04;50102.44;;;-145.72;92.00
28648;BME280;17137;51.494;-0.262;2023-07-24T01:20:42;50084.82;;;-145.72;91.44
28648;BME280;17137;51.494;-0.262;2023-07-24T01:21:14;50095.05;;;-145.72;91.25
28648;BME280;17137;51.494;-0.262;2023-07-24T01:21:57;50096.41;;;-145.72;90.96
28648;BME280;17137;51.494;-0.262;2023-07-24T01:22:39;50090.12;;;-145.72;90.55
28648;BME280;17137;51.494;-0.262;2023-07-24T01:23:23;50090.98;;;-145.72;91.03
28648;BME280;17137;51.494;-0.262;2023-07-24T01:24:07;50097.51;;;-145.72;90.95
28648;BME280;17137;51.494;-0.262;2023-07-24T01:24:52;50093.69;;;-145.72;90.72
28648;BME280;17137;51.494;-0.262;2023-07-24T01:25:32;50090.37;;;-145.72;90.59
28648;BME280;17137;51.494;-0.262;2023-07-24T01:26:03;50080.87;;;-145.72;90.32
28648;BME280;17137;51.494;-0.262;2023-07-24T01:26:35;50076.68;;;-145.72;90.26
28648;BME280;17137;51.494;-0.262;2023-07-24T01:27:07;50080.26;;;-145.72;90.30
28648;BME280;17137;51.494;-0.262;2023-07-24T01:27:41;50087.28;;;-145.72;89.99
28648;BME280;17137;51.494;-0.262;2023-07-24T01:28:12;50085.93;;;-145.72;90.05
28648;BME280;17137;51.494;-0.262;2023-07-24T01:28:42;50088.52;;;-145.72;90.26
28648;BME280;17137;51.494;-0.262;2023-07-24T01:29:12;50077.67;;;-145.72;89.82
28648;BME280;17137;51.494;-0.262;2023-07-24T01:29:42;50077.30;;;-145.72;89.57
28648;BME280;17137;51.494;-0.262;2023-07-24T01:30:16;50073.48;;;-145.72;89.54
28648;BME280;17137;51.494;-0.262;2023-07-24T01:30:47;50077.55;;;-145.72;89.51
28648;BME280;17137;51.494;-0.262;2023-07-24T01:31:17;50076.07;;;-145.72;89.37
28648;BME280;17137;51.494;-0.262;2023-07-24T01:31:47;50071.75;;;-145.72;89.29
28648;BME280;17137;51.494;-0.262;2023-07-24T01:32:18;50079.52;;;-145.72;89.16
28648;BME280;17137;51.494;-0.262;2023-07-24T01:32:49;50080.01;;;-145.72;89.11
28648;BME280;17137;51.494;-0.262;2023-07-24T01:33:19;50078.66;;;-145.72;89.38
28648;BME280;17137;51.494;-0.262;2023-07-24T01:33:50;50087.16;;;-145.72;89.35
28648;BME280;17137;51.494;-0.262;2023-07-24T01:34:21;50087.65;;;-145.72;89.47
28648;BME280;17137;51.494;-0.262;2023-07-24T01:34:53;50081.86;;;-145.72;89.30
28648;BME280;17137;51.494;-0.262;2023-07-24T01:35:24;50078.29;;;-145.72;89.84
28648;BME280;17137;51.494;-0.262;2023-07-24T01:35:59;50073.35;;;-145.72;89.50
28648;BME280;17137;51.494;-0.262;2023-07-24T01:36:30;50082.97;;;-145.72;89.43
28648;BME280;17137;51.494;-0.262;2023-07-24T01:37:01;50080.01;;;-145.72;89.37
28648;BME280;17137;51.494;-0.262;2023-07-24T01:37:34;50081.24;;;-145.72;89.18
28648;BME280;17137;51.494;-0.262;2023-07-24T01:38:04;50071.63;;;-145.72;89.09
28648;BME280;17137;51.494;-0.262;2023-07-24T01:38:35;50082.11;;;-145.72;88.89
28648;BME280;17137;51.494;-0.262;2023-07-24T01:39:07;50072.62;;;-145.72;88.97
28648;BME280;17137;51.494;-0.262;2023-07-24T01:39:39;50084.08;;;-145.72;88.95
28648;BME280;17137;51.494;-0.262;2023-07-24T01:40:11;50068.18;;;-145.72;88.93
28648;BME280;17137;51.494;-0.262;2023-07-24T01:40:43;50075.45;;;-145.72;88.96
28648;BME280;17137;51.494;-0.262;2023-07-24T01:41:13;50092.83;;;-145.72;89.14
28648;BME280;17137;51.494;-0.262;2023-07-24T01:41:44;50088.39;;;-145.72;89.36
28648;BME280;17137;51.494;-0.262;2023-07-24T01:42:14;50080.75;;;-145.72;89.44
28648;BME280;17137;51.494;-0.262;2023-07-24T01:42:44;50086.91;;;-145.72;89.31
28648;BME280;17137;51.494;-0.262;2023-07-24T01:43:15;50069.41;;;-145.72;89.28
28648;BME280;17137;51.494;-0.262;2023-07-24T01:43:45;50087.65;;;-145.72;89.24
28648;BME280;17137;51.494;-0.262;2023-07-24T01:44:15;50094.80;;;-145.72;89.49
28648;BME280;17137;51.494;-0.262;2023-07-24T01:45:15;50095.91;;;-145.72;90.33
28648;BME280;17137;51.494;-0.262;2023-07-24T01:45:45;50087.28;;;-145.72;90.33
28648;BME280;17137;51.494;-0.262;2023-07-24T01:46:15;50089.75;;;-145.72;90.40
28648;BME280;17137;51.494;-0.262;2023-07-24T01:46:46;50087.04;;;-145.72;90.36
28648;BME280;17137;51.494;-0.262;2023-07-24T01:47:16;50084.57;;;-145.72;90.60
28648;BME280;17137;51.494;-0.262;2023-07-24T01:47:46;50088.89;;;-145.72;90.68
28648;BME280;17137;51.494;-0.262;2023-07-24T01:48:17;50091.10;;;-145.72;90.67
28648;BME280;17137;51.494;-0.262;2023-07-24T01:48:47;50105.28;;;-145.72;90.88
28648;BME280;17137;51.494;-0.262;2023-07-24T01:49:17;50089.38;;;-145.72;91.07
28648;BME280;17137;51.494;-0.262;2023-07-24T01:49:48;50088.89;;;-145.72;91.12
28648;BME280;17137;51.494;-0.262;2023-07-24T01:50:18;50086.79;;;-145.72;91.00
28648;BME280;17137;51.494;-0.262;2023-07-24T01:50:48;50084.45;;;-145.72;90.79
28648;BME280;17137;51.494;-0.262;2023-07-24T01:51:18;50081.24;;;-145.72;90.69
28648;BME280;17137;51.494;-0.262;2023-07-24T01:51:49;50083.71;;;-145.72;90.54
28648;BME280;17137;51.494;-0.262;2023-07-24T01:52:19;50084.08;;;-145.72;90.44
28648;BME280;17137;51.494;-0.262;2023-07-24T01:52:50;50097.14;;;-145.72;91.47
28648;BME280;17137;51.494;-0.262;2023-07-24T01:53:20;50098.50;;;-145.72;91.85
28648;BME280;17137;51.494;-0.262;2023-07-24T01:53:50;50101.09;;;-145.72;91.75
28648;BME280;17137;51.494;-0.262;2023-07-24T01:54:20;50101.34;;;-145.72;91.98
28648;BME280;17137;51.494;-0.262;2023-07-24T01:54:51;50108.98;;;-145.72;92.91
28648;BME280;17137;51.494;-0.262;2023-07-24T01:55:21;50103.06;;;-145.72;92.95
28648;BME280;17137;51.494;-0.262;2023-07-24T01:55:51;50104.91;;;-145.72;92.62
28648;BME280;17137;51.494;-0.262;2023-07-24T01:56:21;50106.88;;;-145.72;92.49
28648;BME280;17137;51.494;-0.262;2023-07-24T01:56:52;50104.91;;;-145.72;92.43
28648;BME280;17137;51.494;-0.262;2023-07-24T01:57:22;50096.16;;;-145.72;92.25
28648;BME280;17137;51.494;-0.262;2023-07-24T01:57:52;50098.50;;;-145.72;92.07
28648;BME280;17137;51.494;-0.262;2023-07-24T01:58:23;50100.72;;;-145.72;92.01
28648;BME280;17137;51.494;-0.262;2023-07-24T01:58:53;50084.45;;;-145.72;91.78
28648;BME280;17137;51.494;-0.262;2023-07-24T01:59:23;50092.58;;;-145.72;91.56
28648;BME280;17137;51.494;-0.262;2023-07-24T01:59:54;50093.20;;;-145.72;91.60
28648;BME280;17137;51.494;-0.262;2023-07-24T02:00:24;50086.42;;;-145.72;91.46
28648;BME280;17137;51.494;-0.262;2023-07-24T02:00:55;50091.84;;;-145.72;91.60
28648;BME280;17137;51.494;-0.262;2023-07-24T02:01:25;50087.28;;;-145.72;92.27
28648;BME280;17137;51.494;-0.262;2023-07-24T02:01:55;50099.49;;;-145.72;92.66
28648;BME280;17137;51.494;-0.262;2023-07-24T02:02:26;50100.10;;;-145.72;92.44
28648;BME280;17137;51.494;-0.262;2023-07-24T02:02:56;50089.26;;;-145.72;92.37
28648;BME280;17137;51.494;-0.262;2023-07-24T02:03:26;50089.13;;;-145.72;92.27
28648;BME280;17137;51.494;-0.262;2023-07-24T02:03:56;50092.58;;;-145.72;91.93
28648;BME280;17137;51.494;-0.262;2023-07-24T02:04:27;50093.08;;;-145.72;92.17
28648;BME280;17137;51.494;-0.262;2023-07-24T02:04:57;50105.53;;;-145.72;92.27
28648;BME280;17137;51.494;-0.262;2023-07-24T02:05:27;50090.49;;;-145.72;92.06
28648;BME280;17137;51.494;-0.262;2023-07-24T02:05:57;50096.41;;;-145.72;91.91
28648;BME280;17137;51.494;-0.262;2023-07-24T02:06:28;50094.93;;;-145.72;92.04
28648;BME280;17137;51.494;-0.262;2023-07-24T02:06:58;50095.30;;;-145.72;92.32
28648;BME280;17137;51.494;-0.262;2023-07-24T02:07:28;50101.95;;;-145.72;92.41
28648;BME280;17137;51.494;-0.262;2023-07-24T02:07:58;50093.08;;;-145.72;92.44
28648;BME280;17137;51.494;-0.262;2023-07-24T02:08:29;50100.10;;;-145.72;92.37
28648;BME280;17137;51.494;-0.262;2023-07-24T02:08:59;50094.80;;;-145.72;92.17
28648;BME280;17137;51.494;-0.262;2023-07-24T02:09:29;50102.08;;;-145.72;92.43
28648;BME280;17137;51.494;-0.262;2023-07-24T02:09:59;50099.24;;;-145.72;92.44
28648;BME280;17137;51.494;-0.262;2023-07-24T02:10:30;50101.21;;;-145.72;92.40
28648;BME280;17137;51.494;-0.262;2023-07-24T02:11:00;50089.63;;;-145.72;92.13
28648;BME280;17137;51.494;-0.262;2023-07-24T02:11:30;50088.52;;;-145.72;92.19
28648;BME280;17137;51.494;-0.262;2023-07-24T02:12:00;50099.36;;;-145.72;92.30
28648;BME280;17137;51.494;-0.262;2023-07-24T02:12:31;50089.13;;;-145.72;91.90
28648;BME280;17137;51.494;-0.262;2023-07-24T02:13:01;50097.27;;;-145.72;91.83
28648;BME280;17137;51.494;-0.262;2023-07-24T02:13:31;50105.16;;;-145.72;91.88
28648;BME280;17137;51.494;-0.262;2023-07-24T02:14:02;50093.82;;;-145.72;92.03
28648;BME280;17137;51.494;-0.262;2023-07-24T02:14:32;50093.94;;;-145.72;91.96
28648;BME280;17137;51.494;-0.262;2023-07-24T02:15:02;50091.72;;;-145.72;91.74
28648;BME280;17137;51.494;-0.262;2023-07-24T02:15:33;50101.71;;;-145.72;91.65
28648;BME280;17137;51.494;-0.262;2023-07-24T02:16:04;50106.76;;;-145.72;91.95
28648;BME280;17137;51.494;-0.262;2023-07-24T02:16:34;50104.79;;;-145.72;91.97
28648;BME280;17137;51.494;-0.262;2023-07-24T02:17:05;50099.73;;;-145.72;91.95
28648;BME280;17137;51.494;-0.262;2023-07-24T02:17:35;50097.27;;;-145.72;92.22
28648;BME280;17137;51.494;-0.262;2023-07-24T02:18:06;50096.90;;;-145.72;92.08
28648;BME280;17137;51.494;-0.262;2023-07-24T02:18:37;50102.08;;;-145.72;91.91
28648;BME280;17137;51.494;-0.262;2023-07-24T02:19:07;50092.95;;;-145.72;91.93
28648;BME280;17137;51.494;-0.262;2023-07-24T02:19:37;50099.98;;;-145.72;92.05
28648;BME280;17137;51.494;-0.262;2023-07-24T02:20:08;50102.20;;;-145.72;92.30
28648;BME280;17137;51.494;-0.262;2023-07-24T02:20:39;50098.62;;;-145.72;92.56
28648;BME280;17137;51.494;-0.262;2023-07-24T02:21:09;50103.18;;;-145.72;92.68
28648;BME280;17137;51.494;-0.262;2023-07-24T02:21:40;50101.58;;;-145.72;92.45
28648;BME280;17137;51.494;-0.262;2023-07-24T02:22:10;50107.87;;;-145.72;92.58
28648;BME280;17137;51.494;-0.262;2023-07-24T02:22:40;50096.16;;;-145.72;92.31
28648;BME280;17137;51.494;-0.262;2023-07-24T02:23:10;50097.27;;;-145.72;91.96
28648;BME280;17137;51.494;-0.262;2023-07-24T02:23:41;50083.46;;;-145.72;91.48
28648;BME280;17137;51.494;-0.262;2023-07-24T02:24:11;50100.97;;;-145.72;91.38
28648;BME280;17137;51.494;-0.262;2023-07-24T02:24:41;50099.36;;;-145.72;91.62
28648;BME280;17137;51.494;-0.262;2023-07-24T02:25:12;50098.75;;;-145.72;91.59
28648;BME280;17137;51.494;-0.262;2023-07-24T02:25:42;50097.14;;;-145.72;91.96
28648;BME280;17137;51.494;-0.262;2023-07-24T02:26:12;50096.04;;;-145.72;91.83
28648;BME280;17137;51.494;-0.262;2023-07-24T02:26:43;50095.79;;;-145.72;91.83
28648;BME280;17137;51.494;-0.262;2023-07-24T02:27:23;50085.31;;;-145.72;91.51
28648;BME280;17137;51.494;-0.262;2023-07-24T02:27:54;50089.38;;;-145.72;91.58
28648;BME280;17137;51.494;-0.262;2023-07-24T02:28:24;50101.34;;;-145.72;91.55
28648;BME280;17137;51.494;-0.262;2023-07-24T02:28:55;50106.14;;;-145.72;91.93
28648;BME280;17137;51.494;-0.262;2023-07-24T02:29:25;50101.09;;;-145.72;91.80
28648;BME280;17137;51.494;-0.262;2023-07-24T02:29:55;50097.51;;;-145.72;91.68
28648;BME280;17137;51.494;-0.262;2023-07-24T02:30:26;50090.61;;;-145.72;91.37
28648;BME280;17137;51.494;-0.262;2023-07-24T02:30:56;50082.35;;;-145.72;91.32
28648;BME280;17137;51.494;-0.262;2023-07-24T02:31:27;50083.46;;;-145.72;90.99
28648;BME280;17137;51.494;-0.262;2023-07-24T02:31:58;50086.54;;;-145.72;90.72
28648;BME280;17137;51.494;-0.262;2023-07-24T02:32:28;50090.24;;;-145.72;90.87
28648;BME280;17137;51.494;-0.262;2023-07-24T02:32:58;50097.02;;;-145.72;91.02
28648;BME280;17137;51.494;-0.262;2023-07-24T02:33:29;50091.10;;;-145.72;91.06
28648;BME280;17137;51.494;-0.262;2023-07-24T02:33:59;50096.53;;;-145.72;91.01
28648;BME280;17137;51.494;-0.262;2023-07-24T02:34:29;50087.41;;;-145.72;91.09
28648;BME280;17137;51.494;-0.262;2023-07-24T02:34:59;50095.79;;;-145.72;90.95
28648;BME280;17137;51.494;-0.262;2023-07-24T02:35:30;50088.76;;;-145.72;90.93
28648;BME280;17137;51.494;-0.262;2023-07-24T02:36:01;50096.65;;;-145.72;90.94
28648;BME280;17137;51.494;-0.262;2023-07-24T02:36:31;50082.35;;;-145.72;91.10
28648;BME280;17137;51.494;-0.262;2023-07-24T02:37:01;50098.01;;;-145.72;91.07
28648;BME280;17137;51.494;-0.262;2023-07-24T02:37:32;50090.73;;;-145.72;91.03
28648;BME280;17137;51.494;-0.262;2023-07-24T02:38:02;50080.75;;;-145.72;91.11
28648;BME280;17137;51.494;-0.262;2023-07-24T02:38:32;50088.64;;;-145.72;91.11
28648;BME280;17137;51.494;-0.262;2023-07-24T02:39:02;50101.34;;;-145.72;91.65
28648;BME280;17137;51.494;-0.262;2023-07-24T02:39:32;50097.64;;;-145.72;92.17